Time;durP1;ratioP1;P1;durP2;ratioP2;P2;SDS_P1;SDS_P2;PMS_P1;PMS_P2;Temp;Humidity;BMP_temperature;BMP_pressure;BME280_temperature;BME280_humidity;BME280_pressure;Samples;Min_cycle;Max_cycle;Signal;HPM_P1;HPM_P2
2023/01/23 00:00:51;;;;;;;3.37;2.33;;;;;;;;;;4383659;32;67831;-64
2023/01/23 00:03:37;;;;;;;3.47;2.30;;;;;;;;;;4371949;32;59098;-64
2023/01/23 00:06:25;;;;;;;4.75;2.80;;;;;;;;;;4382248;32;70328;-63
2023/01/23 00:09:12;;;;;;;4.15;2.45;;;;;;;;;;4360578;32;65876;-62
2023/01/23 00:11:59;;;;;;;3.58;2.47;;;;;;;;;;4381688;32;66658;-63
2023/01/23 00:14:45;;;;;;;4.32;2.35;;;;;;;;;;4382077;32;59978;-62
2023/01/23 00:17:32;;;;;;;4.00;2.40;;;;;;;;;;4361660;32;70660;-62
2023/01/23 00:20:19;;;;;;;4.62;2.60;;;;;;;;;;4371670;32;69275;-63
2023/01/23 00:23:05;;;;;;;3.05;2.25;;;;;;;;;;4383446;32;66726;-63
2023/01/23 00:25:52;;;;;;;;;;;;;;;;;;4382445;32;71741;-64
2023/01/23 00:28:38;;;;;;;4.55;2.70;;;;;;;;;;4382258;32;66129;-63
2023/01/23 00:31:26;;;;;;;;;;;;;;;;;;4382754;32;66640;-64
2023/01/23 00:34:14;;;;;;;3.90;2.28;;;;;;;;;;4382198;32;67539;-63
2023/01/23 00:37:01;;;;;;;4.43;2.60;;;;;;;;;;4360973;32;70747;-63
2023/01/23 00:39:49;;;;;;;3.97;2.25;;;;;;;;;;4382300;32;66278;-63
2023/01/23 00:42:36;;;;;;;5.03;2.47;;;;;;;;;;4371687;32;67441;-63
2023/01/23 00:45:23;;;;;;;5.15;2.78;;;;;;;;;;4382357;32;59213;-63
2023/01/23 00:48:09;;;;;;;4.30;2.53;;;;;;;;;;4371080;32;69601;-64
2023/01/23 00:50:56;;;;;;;3.75;2.45;;;;;;;;;;4371343;32;69166;-63
2023/01/23 00:53:43;;;;;;;5.55;2.65;;;;;;;;;;4383550;32;66943;-63
2023/01/23 00:56:30;;;;;;;3.83;2.50;;;;;;;;;;4360929;32;71646;-63
2023/01/23 00:59:16;;;;;;;4.10;2.78;;;;;;;;;;4383055;32;70518;-64
2023/01/23 01:02:03;;;;;;;3.30;2.15;;;;;;;;;;4381731;32;69551;-63
2023/01/23 01:04:49;;;;;;;;;;;;;;;;;;4360987;32;67580;-63
2023/01/23 01:07:36;;;;;;;3.40;2.40;;;;;;;;;;4383003;32;71720;-63
2023/01/23 01:10:24;;;;;;;;;;;;;;;;;;4382230;32;65017;-62
2023/01/23 01:13:11;;;;;;;4.20;2.55;;;;;;;;;;4370873;32;67505;-62
2023/01/23 01:16:00;;;;;;;;;;;;;;;;;;4381958;32;60470;-64
2023/01/23 01:18:47;;;;;;;3.85;2.20;;;;;;;;;;4361102;32;69046;-62
2023/01/23 01:21:34;;;;;;;3.62;2.40;;;;;;;;;;4383708;32;69376;-63
2023/01/23 01:24:21;;;;;;;5.32;2.80;;;;;;;;;;4381561;32;66813;-63
2023/01/23 01:27:08;;;;;;;4.25;2.15;;;;;;;;;;4370345;32;58502;-64
2023/01/23 01:29:55;;;;;;;5.00;2.67;;;;;;;;;;4370870;32;70526;-62
2023/01/23 01:32:42;;;;;;;3.45;2.28;;;;;;;;;;4381405;32;69074;-64
2023/01/23 01:35:28;;;;;;;;;;;;;;;;;;4371029;32;67513;-64
2023/01/23 01:38:15;;;;;;;3.22;2.22;;;;;;;;;;4370886;32;71930;-63
2023/01/23 01:41:02;;;;;;;4.55;2.53;;;;;;;;;;4381318;32;66073;-63
2023/01/23 01:43:49;;;;;;;3.53;2.60;;;;;;;;;;4382676;32;66339;-62
2023/01/23 01:46:36;;;;;;;4.07;2.58;;;;;;;;;;4381473;32;59219;-63
2023/01/23 01:49:28;;;;;;;4.85;2.62;;;;;;;;;;4380994;32;71929;-64
2023/01/23 01:52:16;;;;;;;4.30;2.67;;;;;;;;;;4380487;32;67349;-62
2023/01/23 01:55:04;;;;;;;4.57;2.60;;;;;;;;;;4381167;32;66938;-64
2023/01/23 01:57:53;;;;;;;4.30;2.50;;;;;;;;;;4381456;32;59204;-63
2023/01/23 02:00:40;;;;;;;4.43;2.80;;;;;;;;;;4384803;32;70886;-64
2023/01/23 02:03:26;;;;;;;;;;;;;;;;;;4373130;32;70362;-63
2023/01/23 02:06:13;;;;;;;3.30;2.35;;;;;;;;;;4372230;32;67266;-63
2023/01/23 02:09:15;;;;;;;4.93;2.90;;;;;;;;;;4384250;32;71720;-62
2023/01/23 02:12:03;;;;;;;5.72;2.80;;;;;;;;;;4351101;32;70264;-63
2023/01/23 02:14:50;;;;;;;4.22;2.58;;;;;;;;;;4372164;32;69866;-63
2023/01/23 02:17:37;;;;;;;5.12;2.90;;;;;;;;;;4362187;32;68429;-64
2023/01/23 02:20:24;;;;;;;;;;;;;;;;;;4394555;32;71628;-64
2023/01/23 02:23:41;;;;;;;7.20;2.80;;;;;;;;;;4373374;32;65637;-62
2023/01/23 02:26:36;;;;;;;4.35;2.53;;;;;;;;;;4383563;32;67908;-63
2023/01/23 02:29:24;;;;;;;6.00;2.80;;;;;;;;;;4372948;32;59045;-63
2023/01/23 02:32:11;;;;;;;5.15;2.83;;;;;;;;;;4373088;32;70521;-62
2023/01/23 02:34:58;;;;;;;;;;;;;;;;;;4372570;32;69709;-63
2023/01/23 02:37:46;;;;;;;4.40;2.97;;;;;;;;;;4373424;32;67908;-62
2023/01/23 02:40:37;;;;;;;3.95;2.30;;;;;;;;;;4385109;32;60120;-62
2023/01/23 02:43:26;;;;;;;4.30;2.70;;;;;;;;;;4362298;32;70183;-62
2023/01/23 02:46:16;;;;;;;4.40;2.80;;;;;;;;;;4372134;32;69865;-63
2023/01/23 02:49:03;;;;;;;8.07;2.97;;;;;;;;;;4382558;32;67945;-64
2023/01/23 02:51:51;;;;;;;5.35;2.90;;;;;;;;;;4372392;32;70832;-62
2023/01/23 02:54:39;;;;;;;5.72;2.90;;;;;;;;;;4384407;32;65746;-63
2023/01/23 02:57:26;;;;;;;4.40;2.60;;;;;;;;;;4372013;32;67840;-62
2023/01/23 03:00:15;;;;;;;;;;;;;;;;;;4384884;32;60370;-65
2023/01/23 03:03:04;;;;;;;4.80;2.78;;;;;;;;;;4382656;32;71795;-62
2023/01/23 03:05:51;;;;;;;6.10;3.20;;;;;;;;;;4382479;32;65871;-63
2023/01/23 03:08:46;;;;;;;4.85;2.70;;;;;;;;;;4384260;32;67020;-63
2023/01/23 03:11:34;;;;;;;6.25;3.00;;;;;;;;;;4383229;32;60136;-64
2023/01/23 03:14:22;;;;;;;4.32;2.70;;;;;;;;;;4383842;32;70876;-63
2023/01/23 03:17:09;;;;;;;4.95;2.75;;;;;;;;;;4372431;32;68213;-62
2023/01/23 03:19:56;;;;;;;4.22;2.70;;;;;;;;;;4371735;32;68212;-63
2023/01/23 03:22:45;;;;;;;3.90;2.60;;;;;;;;;;4382052;32;69153;-64
2023/01/23 03:25:32;;;;;;;3.12;2.42;;;;;;;;;;4383210;32;64985;-62
2023/01/23 03:31:24;;;;;;;6.22;2.67;;;;;;;;;;4384658;32;67664;-62
2023/01/23 03:34:11;;;;;;;3.10;2.30;;;;;;;;;;4383935;32;71695;-63
2023/01/23 03:36:59;;;;;;;2.97;2.12;;;;;;;;;;4361239;32;66887;-64
2023/01/23 03:42:51;;;;;;;3.45;2.28;;;;;;;;;;4383125;32;59197;-64
2023/01/23 03:45:41;;;;;;;2.92;1.85;;;;;;;;;;4381899;32;71161;-63
2023/01/23 03:48:28;;;;;;;5.32;2.15;;;;;;;;;;4350565;32;68850;-63
2023/01/23 03:51:15;;;;;;;4.75;2.40;;;;;;;;;;4382670;32;67764;-64
2023/01/23 03:54:02;;;;;;;5.93;0.77;;;;;;;;;;4383075;32;59267;-63
2023/01/23 03:56:49;;;;;;;1.37;0.75;;;;;;;;;;4383984;32;70784;-63
2023/01/23 03:59:42;;;;;;;1.92;1.02;;;;;;;;;;4382812;32;68439;-64
2023/01/23 04:02:29;;;;;;;3.08;1.85;;;;;;;;;;4371973;32;66651;-63
2023/01/23 04:05:16;;;;;;;5.20;2.00;;;;;;;;;;4383704;32;70703;-63
2023/01/23 04:08:02;;;;;;;3.78;1.90;;;;;;;;;;4383562;32;65764;-64
2023/01/23 04:10:50;;;;;;;4.82;2.15;;;;;;;;;;4382107;32;67950;-63
2023/01/23 04:13:36;;;;;;;3.50;2.12;;;;;;;;;;4374162;32;60095;-64
2023/01/23 04:16:23;;;;;;;3.00;2.00;;;;;;;;;;4362344;32;69595;-64
2023/01/23 04:19:10;;;;;;;4.07;2.47;;;;;;;;;;4341488;32;65789;-64
2023/01/23 04:21:56;;;;;;;3.97;2.22;;;;;;;;;;4352064;32;67732;-63
2023/01/23 04:24:43;;;;;;;3.33;1.98;;;;;;;;;;4352116;32;59313;-63
2023/01/23 04:27:30;;;;;;;3.65;1.87;;;;;;;;;;4341400;32;70538;-62
2023/01/23 04:30:16;;;;;;;3.33;2.20;;;;;;;;;;4341206;32;68903;-63
2023/01/23 04:33:03;;;;;;;4.28;2.03;;;;;;;;;;4341551;32;67523;-62
2023/01/23 04:36:00;;;;;;;3.20;1.95;;;;;;;;;;4363868;32;71476;-62
2023/01/23 04:38:48;;;;;;;4.90;2.45;;;;;;;;;;4352001;32;66527;-63
2023/01/23 04:41:36;;;;;;;4.43;2.03;;;;;;;;;;4351688;32;69293;-64
2023/01/23 04:44:23;;;;;;;;;;;;;;;;;;4353268;32;67878;-64
2023/01/23 04:47:10;;;;;;;6.30;2.47;;;;;;;;;;4340886;32;72037;-63
2023/01/23 04:49:57;;;;;;;4.20;2.47;;;;;;;;;;4351375;32;65832;-64
2023/01/23 04:52:44;;;;;;;;;;;;;;;;;;4353377;32;67737;-64
2023/01/23 04:55:32;;;;;;;3.25;2.30;;;;;;;;;;4343279;32;60514;-64
2023/01/23 04:58:19;;;;;;;3.58;2.17;;;;;;;;;;4340766;32;70235;-62
2023/01/23 05:01:07;;;;;;;3.00;2.17;;;;;;;;;;4351501;32;68001;-63
2023/01/23 05:03:54;;;;;;;4.07;2.30;;;;;;;;;;4341027;32;67748;-63
2023/01/23 05:06:41;;;;;;;3.60;2.22;;;;;;;;;;4341286;32;60508;-63
2023/01/23 05:09:27;;;;;;;4.22;2.42;;;;;;;;;;4352604;32;70379;-63
2023/01/23 05:12:14;;;;;;;;;;;;;;;;;;4341339;32;69886;-63
2023/01/23 05:15:00;;;;;;;4.90;2.60;;;;;;;;;;4388854;32;66809;-63
2023/01/23 05:17:48;;;;;;;4.30;2.55;;;;;;;;;;4370115;32;71579;-64
2023/01/23 05:20:35;;;;;;;4.18;2.50;;;;;;;;;;4371315;32;66256;-62
2023/01/23 05:23:24;;;;;;;3.58;2.10;;;;;;;;;;4382724;32;68391;-63
2023/01/23 05:26:10;;;;;;;;;;;;;;;;;;4370784;32;60870;-63
2023/01/23 05:28:57;;;;;;;3.58;2.42;;;;;;;;;;4381557;32;68989;-63
2023/01/23 05:31:44;;;;;;;;;;;;;;;;;;4381155;32;66577;-64
2023/01/23 05:34:32;;;;;;;3.95;2.67;;;;;;;;;;4360660;32;67042;-63
2023/01/23 05:37:19;;;;;;;4.90;2.65;;;;;;;;;;4385599;32;60040;-62
2023/01/23 05:40:09;;;;;;;4.15;2.58;;;;;;;;;;4372597;32;70711;-63
2023/01/23 05:42:58;;;;;;;5.28;2.75;;;;;;;;;;4383067;32;70278;-63
2023/01/23 05:45:46;;;;;;;3.87;2.10;;;;;;;;;;4385306;32;66878;-63
2023/01/23 05:48:34;;;;;;;3.60;2.45;;;;;;;;;;4373659;32;71630;-62
2023/01/23 05:51:31;;;;;;;4.28;2.67;;;;;;;;;;4385045;32;65903;-63
2023/01/23 05:54:17;;;;;;;3.60;2.42;;;;;;;;;;4383092;32;68781;-63
2023/01/23 05:57:04;;;;;;;4.37;2.62;;;;;;;;;;4351799;32;68532;-62
2023/01/23 05:59:54;;;;;;;3.83;2.28;;;;;;;;;;4385183;32;71244;-62
2023/01/23 06:02:42;;;;;;;3.70;2.60;;;;;;;;;;4385147;32;65955;-63
2023/01/23 06:05:30;;;;;;;4.80;2.75;;;;;;;;;;4383612;32;68125;-62
2023/01/23 06:08:17;;;;;;;4.85;2.85;;;;;;;;;;4372751;32;59747;-62
2023/01/23 06:11:04;;;;;;;5.45;2.55;;;;;;;;;;4351419;32;71651;-64
2023/01/23 06:13:51;;;;;;;4.32;2.58;;;;;;;;;;4371778;32;70712;-62
2023/01/23 06:16:37;;;;;;;;;;;;;;;;;;4362001;32;68256;-62
2023/01/23 06:19:24;;;;;;;5.95;3.17;;;;;;;;;;4362902;32;72445;-63
2023/01/23 06:22:11;;;;;;;4.72;2.50;;;;;;;;;;4373023;32;69652;-63
2023/01/23 06:25:00;;;;;;;4.55;2.85;;;;;;;;;;4361992;32;69297;-63
2023/01/23 06:27:47;;;;;;;4.18;2.67;;;;;;;;;;4361538;32;68319;-62
2023/01/23 06:30:34;;;;;;;4.22;2.90;;;;;;;;;;4384508;32;70753;-62
2023/01/23 06:33:22;;;;;;;3.30;2.58;;;;;;;;;;4383546;32;66207;-62
2023/01/23 06:36:09;;;;;;;4.53;3.03;;;;;;;;;;4372106;32;68825;-62
2023/01/23 06:38:57;;;;;;;4.20;2.60;;;;;;;;;;4372302;32;60746;-62
2023/01/23 06:41:44;;;;;;;5.07;2.55;;;;;;;;;;4372216;32;70342;-63
2023/01/23 06:44:31;;;;;;;4.25;2.87;;;;;;;;;;4383289;32;69508;-62
2023/01/23 06:47:19;;;;;;;4.00;2.62;;;;;;;;;;4382769;32;67108;-62
2023/01/23 06:50:10;;;;;;;4.37;2.58;;;;;;;;;;4383262;32;60242;-63
2023/01/23 06:52:56;;;;;;;4.70;2.85;;;;;;;;;;4383145;32;70433;-62
2023/01/23 06:55:44;;;;;;;3.87;2.60;;;;;;;;;;4383222;32;69251;-62
2023/01/23 06:58:32;;;;;;;4.95;2.67;;;;;;;;;;4373128;32;66680;-63
2023/01/23 07:01:19;;;;;;;3.40;2.50;;;;;;;;;;4383148;32;71929;-63
2023/01/23 07:04:10;;;;;;;4.45;2.28;;;;;;;;;;4371930;32;66789;-63
2023/01/23 07:06:57;;;;;;;5.07;2.28;;;;;;;;;;4372288;32;68355;-62
2023/01/23 07:09:44;;;;;;;4.05;2.58;;;;;;;;;;4384272;32;67077;-62
2023/01/23 07:12:32;;;;;;;4.60;2.80;;;;;;;;;;4382598;32;71893;-61
2023/01/23 07:15:19;;;;;;;4.30;2.53;;;;;;;;;;4371563;32;66956;-61
2023/01/23 07:18:08;;;;;;;5.32;2.55;;;;;;;;;;4383803;32;67924;-62
2023/01/23 07:20:55;;;;;;;4.12;2.70;;;;;;;;;;4372398;32;59975;-62
2023/01/23 07:23:42;;;;;;;4.65;3.00;;;;;;;;;;4372139;32;69728;-62
2023/01/23 07:26:28;;;;;;;4.25;2.60;;;;;;;;;;4372169;32;69098;-62
2023/01/23 07:29:15;;;;;;;;;;;;;;;;;;4350923;32;67784;-62
2023/01/23 07:32:02;;;;;;;4.35;2.50;;;;;;;;;;4384445;32;71963;-62
2023/01/23 07:34:51;;;;;;;4.50;2.80;;;;;;;;;;4350451;32;69933;-61
2023/01/23 07:37:37;;;;;;;4.32;2.70;;;;;;;;;;4372113;32;69900;-62
2023/01/23 07:40:24;;;;;;;4.85;2.97;;;;;;;;;;4371580;32;67110;-62
2023/01/23 07:43:11;;;;;;;;;;;;;;;;;;4361558;32;70929;-62
2023/01/23 07:45:59;;;;;;;3.40;2.45;;;;;;;;;;4382421;32;63980;-62
2023/01/23 07:48:46;;;;;;;3.95;2.60;;;;;;;;;;4382707;32;67262;-62
2023/01/23 07:51:34;;;;;;;5.75;2.78;;;;;;;;;;4371311;32;60762;-62
2023/01/23 07:54:20;;;;;;;6.12;3.00;;;;;;;;;;4371646;32;70268;-62
2023/01/23 07:57:07;;;;;;;;;;;;;;;;;;4381283;32;69891;-63
2023/01/23 07:59:53;;;;;;;4.15;2.40;;;;;;;;;;4371125;32;69192;-62
2023/01/23 08:02:40;;;;;;;4.95;2.87;;;;;;;;;;4371269;32;59493;-62
2023/01/23 08:05:27;;;;;;;5.07;2.78;;;;;;;;;;4372739;32;69439;-62
2023/01/23 08:08:13;;;;;;;4.18;2.75;;;;;;;;;;4382140;32;69616;-63
2023/01/23 08:11:04;;;;;;;3.75;2.70;;;;;;;;;;4371142;32;65540;-63
2023/01/23 08:13:51;;;;;;;4.15;2.50;;;;;;;;;;4371159;32;71920;-62
2023/01/23 08:16:38;;;;;;;3.90;2.62;;;;;;;;;;4371652;32;66007;-63
2023/01/23 08:19:26;;;;;;;4.60;2.50;;;;;;;;;;4371799;32;66415;-63
2023/01/23 08:22:13;;;;;;;4.15;2.85;;;;;;;;;;4372041;32;60422;-62
2023/01/23 08:24:59;;;;;;;5.55;2.92;;;;;;;;;;4383282;32;70779;-63
2023/01/23 08:27:46;;;;;;;6.05;2.95;;;;;;;;;;4382032;32;66290;-62
2023/01/23 08:30:33;;;;;;;5.65;2.85;;;;;;;;;;4370480;32;65966;-62
2023/01/23 08:33:21;;;;;;;4.20;2.45;;;;;;;;;;4382455;32;59224;-62
2023/01/23 08:36:08;;;;;;;4.30;2.75;;;;;;;;;;4382678;32;70715;-63
2023/01/23 08:38:55;;;;;;;4.40;2.80;;;;;;;;;;4361980;32;70136;-62
2023/01/23 08:41:42;;;;;;;5.32;2.70;;;;;;;;;;4373556;32;68008;-62
2023/01/23 08:44:31;;;;;;;3.85;2.62;;;;;;;;;;4364552;32;71743;-63
2023/01/23 08:47:18;;;;;;;4.57;2.35;;;;;;;;;;4385835;32;65967;-62
2023/01/23 08:50:05;;;;;;;3.65;2.17;;;;;;;;;;4386214;32;70028;-62
2023/01/23 08:52:52;;;;;;;4.43;2.17;;;;;;;;;;4384221;32;67766;-62
2023/01/23 08:55:39;;;;;;;3.87;2.37;;;;;;;;;;4372240;32;70741;-62
2023/01/23 08:58:26;;;;;;;3.85;2.50;;;;;;;;;;4371875;32;66245;-63
2023/01/23 09:01:14;;;;;;;2.95;2.20;;;;;;;;;;4371894;32;66975;-62
2023/01/23 09:04:00;;;;;;;5.15;2.53;;;;;;;;;;4371797;32;60155;-62
2023/01/23 09:09:32;;;;;;;3.78;2.47;;;;;;;;;;3847595;37;43466;-62
2023/01/23 09:12:19;;;;;;;4.20;2.67;;;;;;;;;;4388153;32;58062;-62
2023/01/23 09:15:06;;;;;;;5.00;3.03;;;;;;;;;;4388471;32;70612;-62
2023/01/23 09:17:53;;;;;;;5.70;2.90;;;;;;;;;;4409939;32;68523;-61
2023/01/23 09:20:40;;;;;;;6.07;3.08;;;;;;;;;;4409292;32;67942;-62
2023/01/23 09:23:27;;;;;;;5.45;2.90;;;;;;;;;;4409453;32;72015;-62
2023/01/23 09:26:15;;;;;;;4.20;2.75;;;;;;;;;;4399056;32;65736;-62
2023/01/23 09:29:01;;;;;;;4.43;2.83;;;;;;;;;;4398998;32;67412;-62
2023/01/23 09:31:48;;;;;;;4.53;2.55;;;;;;;;;;4399116;32;60377;-61
2023/01/23 09:34:34;;;;;;;5.87;3.10;;;;;;;;;;4387367;32;72422;-62
2023/01/23 09:37:21;;;;;;;5.82;2.90;;;;;;;;;;4398507;32;66928;-62
2023/01/23 09:40:16;;;;;;;5.72;2.92;;;;;;;;;;4409360;32;67191;-62
2023/01/23 09:43:32;;;;;;;4.60;2.80;;;;;;;;;;4409838;32;59975;-65
2023/01/23 09:46:27;;;;;;;5.00;2.92;;;;;;;;;;4409284;32;69639;-62
2023/01/23 09:49:32;;;;;;;6.15;3.22;;;;;;;;;;4398502;32;68312;-62
2023/01/23 09:52:43;;;;;;;4.07;2.62;;;;;;;;;;4393987;32;67729;-63
2023/01/23 09:55:40;;;;;;;5.50;2.53;;;;;;;;;;4394143;32;71244;-62
2023/01/23 09:58:48;;;;;;;3.70;2.15;;;;;;;;;;4394118;32;65787;-63
2023/01/23 10:01:34;;;;;;;4.45;2.30;;;;;;;;;;4393921;32;69129;-62
2023/01/23 10:04:22;;;;;;;4.35;2.87;;;;;;;;;;4372640;32;68064;-63
2023/01/23 10:07:26;;;;;;;4.57;2.85;;;;;;;;;;4382347;32;71993;-62
2023/01/23 10:10:32;;;;;;;4.78;2.50;;;;;;;;;;4383240;32;65514;-63
2023/01/23 10:13:39;;;;;;;4.55;3.08;;;;;;;;;;4393783;32;66665;-63
2023/01/23 10:16:31;;;;;;;;;;;;;;;;;;4383824;32;58201;-63
2023/01/23 10:19:24;;;;;;;5.47;2.62;;;;;;;;;;4368000;32;70597;-63
2023/01/23 10:22:35;;;;;;;4.40;2.92;;;;;;;;;;4383280;32;68038;-62
2023/01/23 10:25:25;;;;;;;5.07;3.25;;;;;;;;;;4371978;32;67202;-62
2023/01/23 10:28:21;;;;;;;4.05;2.97;;;;;;;;;;4383463;32;60236;-62
2023/01/23 10:31:26;;;;;;;5.18;3.40;;;;;;;;;;4383419;32;69608;-63
2023/01/23 10:34:18;;;;;;;4.57;2.92;;;;;;;;;;4383308;32;68385;-63
2023/01/23 10:37:51;;;;;;;4.80;2.80;;;;;;;;;;4371951;32;68210;-62
2023/01/23 10:43:46;;;;;;;5.72;3.00;;;;;;;;;;4374337;32;64619;-62
2023/01/23 10:46:44;;;;;;;6.57;3.37;;;;;;;;;;4372221;32;67959;-63
2023/01/23 10:49:43;;;;;;;6.43;3.20;;;;;;;;;;4361591;32;60410;-62
2023/01/23 10:52:43;;;;;;;5.62;3.67;;;;;;;;;;4382932;32;69848;-63
2023/01/23 10:55:31;;;;;;;5.65;3.00;;;;;;;;;;4383305;32;66116;-62
2023/01/23 10:58:38;;;;;;;5.45;2.83;;;;;;;;;;4384534;32;67657;-63
2023/01/23 11:01:58;;;;;;;4.12;2.50;;;;;;;;;;4373997;32;61212;-63
2023/01/23 11:04:47;;;;;;;8.50;3.35;;;;;;;;;;4372172;32;70579;-63
2023/01/23 11:07:39;;;;;;;5.68;3.30;;;;;;;;;;4360871;32;68221;-63
2023/01/23 11:10:26;;;;;;;5.62;3.60;;;;;;;;;;4382713;32;66852;-62
2023/01/23 11:13:20;;;;;;;;;;;;;;;;;;4383294;32;71672;-62
2023/01/23 11:16:14;;;;;;;6.68;3.65;;;;;;;;;;4361729;32;65246;-63
2023/01/23 11:19:07;;;;;;;7.43;3.70;;;;;;;;;;4372553;32;67781;-62
2023/01/23 11:22:01;;;;;;;8.93;3.70;;;;;;;;;;4371174;32;69240;-62
2023/01/23 11:24:47;;;;;;;6.10;3.50;;;;;;;;;;4382672;32;71814;-63
2023/01/23 11:27:34;;;;;;;6.87;3.97;;;;;;;;;;4361770;32;65961;-63
2023/01/23 11:30:57;;;;;;;6.82;4.07;;;;;;;;;;4372224;32;67599;-64
2023/01/23 11:34:11;;;;;;;7.35;3.80;;;;;;;;;;4382726;32;58986;-62
2023/01/23 11:37:19;;;;;;;6.45;3.95;;;;;;;;;;4360288;32;70042;-61
2023/01/23 11:40:18;;;;;;;5.00;3.10;;;;;;;;;;4371963;32;69320;-62
2023/01/23 11:43:15;;;;;;;5.57;3.50;;;;;;;;;;4371708;32;67524;-63
2023/01/23 11:46:24;;;;;;;6.37;3.58;;;;;;;;;;4372365;32;59001;-63
2023/01/23 11:49:16;;;;;;;5.43;2.85;;;;;;;;;;4372313;32;69600;-62
2023/01/23 11:52:48;;;;;;;6.78;3.67;;;;;;;;;;4382862;32;69329;-62
2023/01/23 11:55:53;;;;;;;5.37;3.25;;;;;;;;;;4382488;32;68095;-64
2023/01/23 11:59:03;;;;;;;5.78;3.35;;;;;;;;;;4371731;32;71805;-62
2023/01/23 12:02:04;;;;;;;6.43;3.37;;;;;;;;;;4372243;32;64517;-63
2023/01/23 12:05:15;;;;;;;6.30;3.50;;;;;;;;;;4382612;32;67550;-61
2023/01/23 12:08:01;;;;;;;5.68;3.15;;;;;;;;;;4382251;32;60459;-63
2023/01/23 12:11:10;;;;;;;5.03;3.00;;;;;;;;;;4383393;32;70770;-62
2023/01/23 12:14:25;;;;;;;7.07;3.42;;;;;;;;;;4372280;32;64863;-62
2023/01/23 12:17:34;;;;;;;6.50;2.97;;;;;;;;;;4382124;32;67515;-63
2023/01/23 12:20:45;;;;;;;4.22;2.50;;;;;;;;;;4360598;32;60971;-62
2023/01/23 12:23:58;;;;;;;5.60;2.65;;;;;;;;;;4371657;32;70642;-62
2023/01/23 12:26:59;;;;;;;5.30;3.20;;;;;;;;;;4360271;32;67190;-63
2023/01/23 12:30:30;;;;;;;6.05;2.87;;;;;;;;;;4370880;32;68556;-63
2023/01/23 12:33:31;;;;;;;5.22;3.10;;;;;;;;;;4335464;32;71875;-63
2023/01/23 12:36:23;;;;;;;6.87;2.87;;;;;;;;;;4335789;32;65901;-62
2023/01/23 12:39:51;;;;;;;4.57;2.50;;;;;;;;;;4382230;32;67574;-62
2023/01/23 12:42:44;;;;;;;5.47;3.00;;;;;;;;;;4381825;32;67612;-62
2023/01/23 12:45:32;;;;;;;4.93;2.67;;;;;;;;;;4381533;32;70799;-62
2023/01/23 12:48:31;;;;;;;5.18;3.37;;;;;;;;;;4381787;32;65345;-63
2023/01/23 12:51:28;;;;;;;5.82;2.90;;;;;;;;;;4381461;32;67278;-62
2023/01/23 12:54:19;;;;;;;4.62;2.65;;;;;;;;;;4371483;32;60457;-62
2023/01/23 12:57:09;;;;;;;3.83;2.55;;;;;;;;;;4351562;32;71585;-63
2023/01/23 13:00:05;;;;;;;6.55;3.20;;;;;;;;;;4381743;32;69324;-64
2023/01/23 13:03:12;;;;;;;6.93;2.87;;;;;;;;;;4370432;32;68380;-63
2023/01/23 13:05:59;;;;;;;4.73;2.73;;;;;;;;;;4381384;32;71635;-62
2023/01/23 13:08:48;;;;;;;4.80;2.50;;;;;;;;;;4380890;32;70621;-63
2023/01/23 13:12:05;;;;;;;6.03;2.87;;;;;;;;;;4381007;32;70405;-61
2023/01/23 13:17:46;;;;;;;5.82;3.28;;;;;;;;;;3847736;37;43891;-62
2023/01/23 13:23:41;;;;;;;5.22;2.90;;;;;;;;;;4401443;32;72286;-63
2023/01/23 13:26:28;;;;;;;5.50;3.08;;;;;;;;;;4409835;32;69528;-61
2023/01/23 13:29:47;;;;;;;5.87;2.92;;;;;;;;;;4387518;32;68711;-62
2023/01/23 13:32:33;;;;;;;4.82;3.22;;;;;;;;;;4409467;32;71753;-67
2023/01/23 13:35:38;;;;;;;4.85;3.00;;;;;;;;;;4411013;32;66360;-62
2023/01/23 13:38:36;;;;;;;3.58;2.20;;;;;;;;;;4399010;32;66524;-63
2023/01/23 13:41:30;;;;;;;5.30;2.67;;;;;;;;;;4388406;32;60943;-63
2023/01/23 13:44:30;;;;;;;5.78;2.95;;;;;;;;;;4409324;32;71804;-62
2023/01/23 13:50:40;;;;;;;6.68;3.33;;;;;;;;;;4409582;32;67764;-63
2023/01/23 13:56:39;;;;;;;4.90;3.25;;;;;;;;;;4409256;32;70524;-62
2023/01/23 13:59:30;;;;;;;6.87;3.30;;;;;;;;;;4409230;32;69181;-63
2023/01/23 14:05:35;;;;;;;;;;;;;;;;;;4409269;32;71730;-63
2023/01/23 14:08:23;;;;;;;6.65;3.53;;;;;;;;;;4409679;32;65923;-64
2023/01/23 14:11:17;;;;;;;6.22;3.30;;;;;;;;;;4387394;32;69551;-62
2023/01/23 14:17:12;;;;;;;5.32;3.10;;;;;;;;;;4388142;32;72376;-63
2023/01/23 14:20:05;;;;;;;5.25;2.70;;;;;;;;;;4409120;32;65885;-62
2023/01/23 14:22:54;;;;;;;5.95;3.17;;;;;;;;;;4408766;32;67768;-63
2023/01/23 14:25:42;;;;;;;4.12;2.22;;;;;;;;;;4398336;32;59765;-62
2023/01/23 14:28:29;;;;;;;5.97;3.45;;;;;;;;;;4400186;32;70614;-63
2023/01/23 14:31:25;;;;;;;4.78;3.10;;;;;;;;;;4398492;32;68723;-65
2023/01/23 14:34:16;;;;;;;6.00;3.22;;;;;;;;;;4398482;32;67687;-62
2023/01/23 14:37:07;;;;;;;9.75;3.80;;;;;;;;;;4398702;32;60171;-63
2023/01/23 14:39:56;;;;;;;6.03;3.10;;;;;;;;;;4387968;32;70710;-63
2023/01/23 14:42:43;;;;;;;6.00;3.40;;;;;;;;;;4399726;32;69632;-63
2023/01/23 14:45:31;;;;;;;5.93;3.75;;;;;;;;;;4399953;32;67754;-63
2023/01/23 14:48:19;;;;;;;7.70;3.87;;;;;;;;;;4387138;32;72575;-62
2023/01/23 14:51:19;;;;;;;5.93;3.50;;;;;;;;;;4387629;32;66096;-62
2023/01/23 14:54:16;;;;;;;5.68;3.58;;;;;;;;;;4376760;32;67293;-61
2023/01/23 14:57:08;;;;;;;7.87;3.58;;;;;;;;;;4386842;32;61024;-62
2023/01/23 14:59:56;;;;;;;6.40;3.70;;;;;;;;;;4398403;32;70728;-64
2023/01/23 15:02:44;;;;;;;5.35;3.30;;;;;;;;;;4398483;32;65938;-62
2023/01/23 15:05:32;;;;;;;10.23;4.45;;;;;;;;;;4387965;32;67682;-63
2023/01/23 15:08:23;;;;;;;7.15;3.90;;;;;;;;;;4377105;32;60796;-63
2023/01/23 15:11:11;;;;;;;7.43;3.72;;;;;;;;;;4387258;32;70516;-63
2023/01/23 15:14:00;;;;;;;5.85;3.50;;;;;;;;;;4398271;32;69491;-63
2023/01/23 15:16:47;;;;;;;7.32;3.80;;;;;;;;;;4387221;32;67023;-64
2023/01/23 15:19:36;;;;;;;7.50;3.85;;;;;;;;;;4386474;32;71505;-63
2023/01/23 15:22:27;;;;;;;6.03;4.00;;;;;;;;;;4398357;32;64863;-63
2023/01/23 15:25:27;;;;;;;6.25;3.62;;;;;;;;;;4398934;32;66531;-63
2023/01/23 15:28:28;;;;;;;6.87;3.50;;;;;;;;;;4387201;32;68688;-62
2023/01/23 15:31:36;;;;;;;5.32;3.97;;;;;;;;;;4399553;32;71773;-62
2023/01/23 15:34:29;;;;;;;6.20;3.60;;;;;;;;;;4398021;32;66122;-63
2023/01/23 15:37:25;;;;;;;7.00;4.05;;;;;;;;;;4386413;32;68530;-64
2023/01/23 15:40:18;;;;;;;5.93;3.50;;;;;;;;;;4397466;32;60261;-63
2023/01/23 15:43:13;;;;;;;7.90;4.12;;;;;;;;;;4386848;32;71143;-63
2023/01/23 15:46:01;;;;;;;6.50;3.75;;;;;;;;;;4397722;32;69238;-62
2023/01/23 15:48:47;;;;;;;7.80;3.90;;;;;;;;;;4397815;32;67932;-62
2023/01/23 15:51:34;;;;;;;6.07;3.62;;;;;;;;;;4386342;32;60832;-62
2023/01/23 15:54:31;;;;;;;8.10;3.20;;;;;;;;;;4397681;32;69527;-64
2023/01/23 15:57:18;;;;;;;6.47;3.90;;;;;;;;;;4376062;32;69372;-62
2023/01/23 16:00:15;;;;;;;;;;;;;;;;;;4377410;32;67695;-63
2023/01/23 16:03:01;;;;;;;8.13;4.37;;;;;;;;;;4376387;32;71912;-63
2023/01/23 16:05:48;;;;;;;6.97;3.50;;;;;;;;;;4386894;32;65797;-64
2023/01/23 16:08:35;;;;;;;6.45;4.00;;;;;;;;;;4375402;32;67097;-63
2023/01/23 16:11:21;;;;;;;6.75;3.30;;;;;;;;;;4399058;32;59250;-64
2023/01/23 16:14:11;;;;;;;;;;;;;;;;;;4376388;32;70726;-62
2023/01/23 16:16:58;;;;;;;8.95;4.20;;;;;;;;;;4397436;32;66347;-63
2023/01/23 16:19:44;;;;;;;6.25;3.60;;;;;;;;;;4399054;32;66545;-62
2023/01/23 16:22:34;;;;;;;6.62;3.87;;;;;;;;;;4397420;32;60669;-63
2023/01/23 16:25:32;;;;;;;6.53;4.00;;;;;;;;;;4387124;32;70900;-63
2023/01/23 16:28:21;;;;;;;7.80;4.05;;;;;;;;;;4397058;32;69475;-63
2023/01/23 16:31:11;;;;;;;6.50;3.90;;;;;;;;;;4398310;32;66725;-63
2023/01/23 16:33:57;;;;;;;7.07;3.78;;;;;;;;;;4396898;32;70936;-61
2023/01/23 16:36:44;;;;;;;6.00;3.53;;;;;;;;;;4386344;32;66184;-65
2023/01/23 16:39:32;;;;;;;6.37;4.10;;;;;;;;;;4375022;32;68159;-63
2023/01/23 16:42:21;;;;;;;7.03;3.87;;;;;;;;;;4396990;32;67880;-62
2023/01/23 16:45:22;;;;;;;7.53;4.10;;;;;;;;;;4385429;32;72233;-64
2023/01/23 16:48:09;;;;;;;6.68;4.12;;;;;;;;;;4386287;32;65969;-63
2023/01/23 16:51:13;;;;;;;8.98;3.83;;;;;;;;;;4386039;32;67577;-63
2023/01/23 16:54:00;;;;;;;7.47;3.75;;;;;;;;;;4386592;32;60161;-63
2023/01/23 16:56:49;;;;;;;;;;;;;;;;;;4398963;32;69985;-66
2023/01/23 16:59:40;;;;;;;7.32;4.07;;;;;;;;;;4386963;32;68727;-65
2023/01/23 17:02:29;;;;;;;6.95;4.32;;;;;;;;;;4397631;32;67453;-63
2023/01/23 17:05:17;;;;;;;8.00;4.10;;;;;;;;;;4387605;32;71878;-66
2023/01/23 17:11:04;;;;;;;7.05;4.12;;;;;;;;;;3847965;37;43450;-64
2023/01/23 17:13:56;;;;;;;8.48;3.90;;;;;;;;;;4399529;32;60283;-64
2023/01/23 17:16:44;;;;;;;7.53;4.60;;;;;;;;;;4389097;32;69496;-63
2023/01/23 17:19:34;;;;;;;9.68;4.50;;;;;;;;;;4410179;32;69371;-63
2023/01/23 17:22:26;;;;;;;9.30;4.82;;;;;;;;;;4399694;32;67690;-63
2023/01/23 17:25:21;;;;;;;6.70;4.37;;;;;;;;;;4410080;32;71712;-62
2023/01/23 17:28:07;;;;;;;8.32;4.45;;;;;;;;;;4398724;32;66557;-63
2023/01/23 17:30:54;;;;;;;9.07;4.60;;;;;;;;;;4388112;32;67586;-63
2023/01/23 17:33:41;;;;;;;6.97;4.15;;;;;;;;;;4410385;32;60205;-63
2023/01/23 17:36:27;;;;;;;8.73;5.15;;;;;;;;;;4398598;32;72547;-63
2023/01/23 17:39:14;;;;;;;8.85;4.93;;;;;;;;;;4410887;32;65910;-63
2023/01/23 17:42:01;;;;;;;;;;;;;;;;;;4400152;32;66703;-62
2023/01/23 17:44:47;;;;;;;8.55;4.70;;;;;;;;;;4388733;32;58843;-62
2023/01/23 17:47:34;;;;;;;8.20;4.68;;;;;;;;;;4410234;32;70695;-62